createdAt,value
2022-11-10T00:07:55.173Z,100201.13
2022-11-10T01:05:48.455Z,100314.88
2022-11-10T01:10:25.432Z,100315.06
2022-11-10T02:54:06.339Z,100361.50
2022-11-10T04:51:11.929Z,100498.81
2022-11-10T06:38:05.250Z,100716.72
2022-11-10T06:54:24.750Z,100732.78
2022-11-10T07:14:49.577Z,100790.00
2022-11-10T07:26:29.805Z,100820.91
2022-11-10T08:36:20.908Z,100883.00
2022-11-10T08:39:37.729Z,100898.44
2022-11-10T08:43:51.760Z,100906.06
2022-11-10T08:47:03.121Z,100888.34
2022-11-10T09:07:56.575Z,100910.28
2022-11-10T09:47:04.106Z,100974.44
2022-11-10T09:50:59.698Z,100989.53
2022-11-10T09:54:10.683Z,100985.72
2022-11-10T11:16:07.944Z,101025.41
2022-11-10T11:36:03.488Z,101025.56
2022-11-10T11:51:01.894Z,101030.09
2022-11-10T12:14:37.467Z,101035.63
2022-11-10T12:18:25.313Z,101027.28
2022-11-10T12:33:51.806Z,101030.19
2022-11-10T12:36:42.166Z,101035.47
2022-11-10T12:40:02.419Z,101044.78
2022-11-10T12:43:08.523Z,101032.94
2022-11-10T12:46:07.673Z,101036.31
2022-11-10T12:49:55.338Z,101036.16
2022-11-10T12:53:13.419Z,101023.19
2022-11-10T12:56:57.794Z,101036.22
2022-11-10T13:00:39.778Z,101032.28
2022-11-10T13:03:55.027Z,101043.41
2022-11-10T13:07:30.085Z,101045.59
2022-11-10T13:10:35.768Z,101063.41
2022-11-10T13:18:56.890Z,101047.06
2022-11-10T13:22:06.203Z,101053.91
2022-11-10T13:28:51.111Z,101063.06
2022-11-10T13:31:44.593Z,101055.97
2022-11-10T13:34:43.341Z,101049.47
2022-11-10T13:43:29.435Z,101055.34
2022-11-10T13:46:33.250Z,101052.06
2022-11-10T13:49:46.126Z,101075.16
2022-11-10T13:55:42.477Z,101058.03
2022-11-10T13:58:36.863Z,101056.06
2022-11-10T14:01:30.819Z,101067.16
2022-11-10T14:05:21.094Z,101068.16
2022-11-10T14:09:24.191Z,101069.81
2022-11-10T14:15:40.268Z,101080.09
2022-11-10T14:18:42.680Z,101072.41
2022-11-10T14:24:25.525Z,101080.88
2022-11-10T14:27:22.253Z,101089.66
2022-11-10T14:30:24.896Z,101080.78
2022-11-10T14:33:23.299Z,101093.25
2022-11-10T14:36:15.375Z,101085.03
2022-11-10T14:39:24.510Z,101093.59
2022-11-10T14:42:20.612Z,101098.44
2022-11-10T14:45:24.188Z,101087.59
2022-11-10T14:48:34.350Z,101103.41
2022-11-10T14:51:24.282Z,101102.63
2022-11-10T14:54:20.398Z,101107.66
2022-11-10T14:57:13.870Z,101121.63
2022-11-10T15:00:11.764Z,101126.00
2022-11-10T15:03:08.794Z,101135.28
2022-11-10T15:07:04.408Z,101132.06
2022-11-10T15:10:24.855Z,101128.19
2022-11-10T15:13:12.899Z,101126.78
2022-11-10T15:16:23.324Z,101128.00
2022-11-10T15:19:48.572Z,101122.69
2022-11-10T15:22:41.928Z,101125.44
2022-11-10T15:25:40.713Z,101122.75
2022-11-10T15:28:39.166Z,101121.34
2022-11-10T15:31:33.733Z,101117.56
2022-11-10T15:34:53.719Z,101117.47
2022-11-10T16:07:49.670Z,101156.59
2022-11-10T16:16:18.067Z,101146.81
2022-11-10T16:19:12.915Z,101148.09
2022-11-10T16:22:01.033Z,101155.28
2022-11-10T16:25:02.766Z,101163.34
2022-11-10T16:27:51.150Z,101172.09
2022-11-10T16:30:41.135Z,101160.13
2022-11-10T16:33:30.129Z,101163.69
2022-11-10T16:38:58.869Z,101159.50
2022-11-10T16:41:59.493Z,101153.00
2022-11-10T16:44:48.142Z,101169.94
2022-11-10T16:47:36.977Z,101170.81
2022-11-10T16:50:38.582Z,101172.59
2022-11-10T16:56:46.843Z,101179.06
2022-11-10T16:59:38.235Z,101191.41
2022-11-10T17:13:59.880Z,101206.50
2022-11-10T17:20:38.537Z,101208.94
2022-11-10T17:23:28.261Z,101200.63
2022-11-10T17:26:21.254Z,101206.94
2022-11-10T17:29:23.387Z,101211.75
2022-11-10T17:32:16.473Z,101225.09
2022-11-10T17:35:24.482Z,101220.94
2022-11-10T17:38:24.634Z,101228.41
2022-11-10T17:41:20.857Z,101230.53
2022-11-10T17:44:18.387Z,101240.91
2022-11-10T17:47:06.949Z,101228.75
2022-11-10T17:50:13.320Z,101241.59
2022-11-10T17:53:21.926Z,101244.03
2022-11-10T17:56:16.820Z,101246.81
2022-11-10T17:59:08.357Z,101263.06
2022-11-10T18:02:03.975Z,101250.94
2022-11-10T18:04:53.102Z,101233.16
2022-11-10T18:13:02.907Z,101228.44
2022-11-10T18:15:54.728Z,101245.03
2022-11-10T18:18:45.630Z,101256.53
2022-11-10T18:21:34.841Z,101251.00
2022-11-10T18:24:26.818Z,101257.00
2022-11-10T18:27:15.322Z,101246.75
2022-11-10T18:30:09.881Z,101256.66
2022-11-10T18:32:58.571Z,101273.97
2022-11-10T18:36:00.814Z,101271.72
2022-11-10T18:38:51.819Z,101267.34
2022-11-10T18:41:51.068Z,101259.06
2022-11-10T18:44:43.968Z,101268.59
2022-11-10T18:47:32.327Z,101267.88
2022-11-10T18:50:20.808Z,101272.22
2022-11-10T18:53:10.304Z,101278.22
2022-11-10T18:56:16.775Z,101273.53
2022-11-10T20:35:59.440Z,101344.22
2022-11-10T20:45:36.922Z,101334.75
2022-11-10T20:48:59.884Z,101341.47
2022-11-10T20:55:26.035Z,101354.88
2022-11-10T22:54:28.651Z,101381.97
2022-11-10T23:01:50.905Z,101378.84
2022-11-10T23:28:20.724Z,101381.91
2022-11-10T23:40:01.747Z,101399.81
